<?xml version="1.0" encoding="UTF-8" standalone="no" ?>
<gpx xmlns="http://www.topografix.com/GPX/1/1" xmlns:xsi="http://www.w3.org/2001/XMLSchema-instance" xsi:schemaLocation="http://www.topografix.com/GPX/1/1 http://www.topografix.com/GPX/1/1/gpx.xsd" version="1.1" creator="VisuGPX - https://www.visugpx.com">
  <metadata>
    <name>boucle vignerronde</name>
    <desc><![CDATA[marche vigneronde]]></desc>
  </metadata>
  <trk>
    <name><![CDATA[23-JUIL-13 12:42:28]]></name>
    <trkseg>
      <trkpt lat="44.66776" lon="-0.38247">
        <ele>12.15</ele>
        <time>2013-07-23T09:25:05Z</time>
      </trkpt>
      <trkpt lat="44.66776" lon="-0.38248">
        <ele>11.19</ele>
        <time>2013-07-23T09:25:33Z</time>
      </trkpt>
      <trkpt lat="44.66776" lon="-0.38248">
        <ele>11.19</ele>
        <time>2013-07-23T09:25:41Z</time>
      </trkpt>
      <trkpt lat="44.66774" lon="-0.38257">
        <ele>10.71</ele>
        <time>2013-07-23T09:25:47Z</time>
      </trkpt>
      <trkpt lat="44.66768" lon="-0.38284">
        <ele>10.71</ele>
        <time>2013-07-23T09:25:55Z</time>
      </trkpt>
      <trkpt lat="44.66743" lon="-0.3832">
        <ele>10.71</ele>
        <time>2013-07-23T09:26:07Z</time>
      </trkpt>
      <trkpt lat="44.66721" lon="-0.38348">
        <ele>10.23</ele>
        <time>2013-07-23T09:26:17Z</time>
      </trkpt>
      <trkpt lat="44.66699" lon="-0.38332">
        <ele>11.19</ele>
        <time>2013-07-23T09:26:29Z</time>
      </trkpt>
      <trkpt lat="44.66654" lon="-0.38296">
        <ele>12.15</ele>
        <time>2013-07-23T09:26:44Z</time>
      </trkpt>
      <trkpt lat="44.66618" lon="-0.38305">
        <ele>12.15</ele>
        <time>2013-07-23T09:26:54Z</time>
      </trkpt>
      <trkpt lat="44.66572" lon="-0.38347">
        <ele>13.12</ele>
        <time>2013-07-23T09:27:10Z</time>
      </trkpt>
      <trkpt lat="44.6653" lon="-0.38391">
        <ele>15.52</ele>
        <time>2013-07-23T09:27:24Z</time>
      </trkpt>
      <trkpt lat="44.66484" lon="-0.38442">
        <ele>17.44</ele>
        <time>2013-07-23T09:27:40Z</time>
      </trkpt>
      <trkpt lat="44.66446" lon="-0.38487">
        <ele>19.84</ele>
        <time>2013-07-23T09:27:54Z</time>
      </trkpt>
      <trkpt lat="44.66443" lon="-0.38492">
        <ele>20.32</ele>
        <time>2013-07-23T09:27:56Z</time>
      </trkpt>
      <trkpt lat="44.66439" lon="-0.38501">
        <ele>20.81</ele>
        <time>2013-07-23T09:28:08Z</time>
      </trkpt>
      <trkpt lat="44.66439" lon="-0.38501">
        <ele>20.81</ele>
        <time>2013-07-23T09:28:10Z</time>
      </trkpt>
      <trkpt lat="44.66436" lon="-0.38505">
        <ele>20.81</ele>
        <time>2013-07-23T09:28:13Z</time>
      </trkpt>
      <trkpt lat="44.66412" lon="-0.38516">
        <ele>19.84</ele>
        <time>2013-07-23T09:28:22Z</time>
      </trkpt>
      <trkpt lat="44.66376" lon="-0.38581">
        <ele>19.84</ele>
        <time>2013-07-23T09:28:39Z</time>
      </trkpt>
      <trkpt lat="44.6635" lon="-0.38658">
        <ele>19.36</ele>
        <time>2013-07-23T09:28:55Z</time>
      </trkpt>
      <trkpt lat="44.66327" lon="-0.38722">
        <ele>18.88</ele>
        <time>2013-07-23T09:29:08Z</time>
      </trkpt>
      <trkpt lat="44.66305" lon="-0.38782">
        <ele>18.88</ele>
        <time>2013-07-23T09:29:20Z</time>
      </trkpt>
      <trkpt lat="44.66265" lon="-0.38863">
        <ele>18.88</ele>
        <time>2013-07-23T09:29:37Z</time>
      </trkpt>
      <trkpt lat="44.66225" lon="-0.38896">
        <ele>18.4</ele>
        <time>2013-07-23T09:29:48Z</time>
      </trkpt>
      <trkpt lat="44.66213" lon="-0.38905">
        <ele>18.4</ele>
        <time>2013-07-23T09:29:51Z</time>
      </trkpt>
      <trkpt lat="44.66182" lon="-0.3893">
        <ele>18.4</ele>
        <time>2013-07-23T09:29:59Z</time>
      </trkpt>
      <trkpt lat="44.66152" lon="-0.38952">
        <ele>17.44</ele>
        <time>2013-07-23T09:30:07Z</time>
      </trkpt>
      <trkpt lat="44.66127" lon="-0.38938">
        <ele>16.96</ele>
        <time>2013-07-23T09:30:14Z</time>
      </trkpt>
      <trkpt lat="44.66111" lon="-0.38911">
        <ele>17.44</ele>
        <time>2013-07-23T09:30:20Z</time>
      </trkpt>
      <trkpt lat="44.66099" lon="-0.38894">
        <ele>17.92</ele>
        <time>2013-07-23T09:30:24Z</time>
      </trkpt>
      <trkpt lat="44.66089" lon="-0.38876">
        <ele>17.92</ele>
        <time>2013-07-23T09:30:28Z</time>
      </trkpt>
      <trkpt lat="44.66063" lon="-0.38837">
        <ele>17.92</ele>
        <time>2013-07-23T09:30:37Z</time>
      </trkpt>
      <trkpt lat="44.66049" lon="-0.38815">
        <ele>18.4</ele>
        <time>2013-07-23T09:30:42Z</time>
      </trkpt>
      <trkpt lat="44.66004" lon="-0.38744">
        <ele>18.4</ele>
        <time>2013-07-23T09:30:58Z</time>
      </trkpt>
      <trkpt lat="44.66002" lon="-0.38739">
        <ele>18.4</ele>
        <time>2013-07-23T09:30:59Z</time>
      </trkpt>
      <trkpt lat="44.65955" lon="-0.38667">
        <ele>17.92</ele>
        <time>2013-07-23T09:31:14Z</time>
      </trkpt>
      <trkpt lat="44.65896" lon="-0.38573">
        <ele>14.08</ele>
        <time>2013-07-23T09:31:31Z</time>
      </trkpt>
      <trkpt lat="44.6588" lon="-0.38547">
        <ele>12.63</ele>
        <time>2013-07-23T09:31:36Z</time>
      </trkpt>
      <trkpt lat="44.65864" lon="-0.38524">
        <ele>11.19</ele>
        <time>2013-07-23T09:31:42Z</time>
      </trkpt>
      <trkpt lat="44.6586" lon="-0.38516">
        <ele>11.19</ele>
        <time>2013-07-23T09:31:44Z</time>
      </trkpt>
      <trkpt lat="44.65848" lon="-0.38498">
        <ele>10.71</ele>
        <time>2013-07-23T09:31:48Z</time>
      </trkpt>
      <trkpt lat="44.65822" lon="-0.38445">
        <ele>7.83</ele>
        <time>2013-07-23T09:31:57Z</time>
      </trkpt>
      <trkpt lat="44.65806" lon="-0.38409">
        <ele>5.42</ele>
        <time>2013-07-23T09:32:02Z</time>
      </trkpt>
      <trkpt lat="44.65788" lon="-0.38362">
        <ele>2.54</ele>
        <time>2013-07-23T09:32:08Z</time>
      </trkpt>
      <trkpt lat="44.65783" lon="-0.38337">
        <ele>2.06</ele>
        <time>2013-07-23T09:32:11Z</time>
      </trkpt>
      <trkpt lat="44.65774" lon="-0.38264">
        <ele>0.14</ele>
        <time>2013-07-23T09:32:23Z</time>
      </trkpt>
      <trkpt lat="44.65762" lon="-0.38186">
        <ele>4.46</ele>
        <time>2013-07-23T09:32:36Z</time>
      </trkpt>
      <trkpt lat="44.65761" lon="-0.3814">
        <ele>9.75</ele>
        <time>2013-07-23T09:32:46Z</time>
      </trkpt>
      <trkpt lat="44.65759" lon="-0.38093">
        <ele>14.56</ele>
        <time>2013-07-23T09:32:57Z</time>
      </trkpt>
      <trkpt lat="44.65753" lon="-0.38042">
        <ele>18.88</ele>
        <time>2013-07-23T09:33:08Z</time>
      </trkpt>
      <trkpt lat="44.65737" lon="-0.3799">
        <ele>20.81</ele>
        <time>2013-07-23T09:33:20Z</time>
      </trkpt>
      <trkpt lat="44.6572" lon="-0.37946">
        <ele>20.81</ele>
        <time>2013-07-23T09:33:32Z</time>
      </trkpt>
      <trkpt lat="44.65693" lon="-0.37887">
        <ele>20.32</ele>
        <time>2013-07-23T09:33:45Z</time>
      </trkpt>
      <trkpt lat="44.65659" lon="-0.37816">
        <ele>21.29</ele>
        <time>2013-07-23T09:34:00Z</time>
      </trkpt>
      <trkpt lat="44.6564" lon="-0.37778">
        <ele>20.32</ele>
        <time>2013-07-23T09:34:08Z</time>
      </trkpt>
      <trkpt lat="44.65625" lon="-0.3778">
        <ele>19.36</ele>
        <time>2013-07-23T09:34:13Z</time>
      </trkpt>
      <trkpt lat="44.65593" lon="-0.3781">
        <ele>19.36</ele>
        <time>2013-07-23T09:34:24Z</time>
      </trkpt>
      <trkpt lat="44.65551" lon="-0.37847">
        <ele>20.32</ele>
        <time>2013-07-23T09:34:37Z</time>
      </trkpt>
      <trkpt lat="44.65515" lon="-0.37876">
        <ele>21.77</ele>
        <time>2013-07-23T09:34:47Z</time>
      </trkpt>
      <trkpt lat="44.65497" lon="-0.3789">
        <ele>23.69</ele>
        <time>2013-07-23T09:34:52Z</time>
      </trkpt>
      <trkpt lat="44.65475" lon="-0.37908">
        <ele>24.17</ele>
        <time>2013-07-23T09:34:58Z</time>
      </trkpt>
      <trkpt lat="44.65423" lon="-0.37947">
        <ele>26.09</ele>
        <time>2013-07-23T09:35:13Z</time>
      </trkpt>
      <trkpt lat="44.65392" lon="-0.37958">
        <ele>22.73</ele>
        <time>2013-07-23T09:35:24Z</time>
      </trkpt>
      <trkpt lat="44.65357" lon="-0.37899">
        <ele>20.32</ele>
        <time>2013-07-23T09:35:39Z</time>
      </trkpt>
      <trkpt lat="44.65328" lon="-0.37844">
        <ele>19.36</ele>
        <time>2013-07-23T09:35:52Z</time>
      </trkpt>
      <trkpt lat="44.65321" lon="-0.37831">
        <ele>19.36</ele>
        <time>2013-07-23T09:35:55Z</time>
      </trkpt>
      <trkpt lat="44.65285" lon="-0.37768">
        <ele>18.4</ele>
        <time>2013-07-23T09:36:10Z</time>
      </trkpt>
      <trkpt lat="44.6525" lon="-0.37712">
        <ele>18.4</ele>
        <time>2013-07-23T09:36:24Z</time>
      </trkpt>
      <trkpt lat="44.65215" lon="-0.37668">
        <ele>18.4</ele>
        <time>2013-07-23T09:36:37Z</time>
      </trkpt>
      <trkpt lat="44.65213" lon="-0.37622">
        <ele>19.36</ele>
        <time>2013-07-23T09:36:47Z</time>
      </trkpt>
      <trkpt lat="44.65216" lon="-0.37607">
        <ele>18.88</ele>
        <time>2013-07-23T09:36:50Z</time>
      </trkpt>
      <trkpt lat="44.6522" lon="-0.37515">
        <ele>19.36</ele>
        <time>2013-07-23T09:37:05Z</time>
      </trkpt>
      <trkpt lat="44.65209" lon="-0.37407">
        <ele>19.84</ele>
        <time>2013-07-23T09:37:21Z</time>
      </trkpt>
      <trkpt lat="44.652" lon="-0.37318">
        <ele>19.36</ele>
        <time>2013-07-23T09:37:34Z</time>
      </trkpt>
      <trkpt lat="44.65197" lon="-0.37298">
        <ele>19.36</ele>
        <time>2013-07-23T09:37:37Z</time>
      </trkpt>
      <trkpt lat="44.65164" lon="-0.37173">
        <ele>20.32</ele>
        <time>2013-07-23T09:37:56Z</time>
      </trkpt>
      <trkpt lat="44.65138" lon="-0.37084">
        <ele>19.36</ele>
        <time>2013-07-23T09:38:10Z</time>
      </trkpt>
      <trkpt lat="44.65121" lon="-0.36996">
        <ele>19.84</ele>
        <time>2013-07-23T09:38:23Z</time>
      </trkpt>
      <trkpt lat="44.65109" lon="-0.36928">
        <ele>19.84</ele>
        <time>2013-07-23T09:38:33Z</time>
      </trkpt>
      <trkpt lat="44.65086" lon="-0.36817">
        <ele>18.4</ele>
        <time>2013-07-23T09:38:49Z</time>
      </trkpt>
      <trkpt lat="44.65063" lon="-0.36704">
        <ele>17.44</ele>
        <time>2013-07-23T09:39:04Z</time>
      </trkpt>
      <trkpt lat="44.65061" lon="-0.36688">
        <ele>16.96</ele>
        <time>2013-07-23T09:39:06Z</time>
      </trkpt>
      <trkpt lat="44.65043" lon="-0.36598">
        <ele>15.04</ele>
        <time>2013-07-23T09:39:18Z</time>
      </trkpt>
      <trkpt lat="44.65029" lon="-0.36527">
        <ele>13.6</ele>
        <time>2013-07-23T09:39:27Z</time>
      </trkpt>
      <trkpt lat="44.65027" lon="-0.36446">
        <ele>13.12</ele>
        <time>2013-07-23T09:39:38Z</time>
      </trkpt>
      <trkpt lat="44.6503" lon="-0.36342">
        <ele>14.08</ele>
        <time>2013-07-23T09:39:52Z</time>
      </trkpt>
      <trkpt lat="44.65026" lon="-0.36292">
        <ele>14.08</ele>
        <time>2013-07-23T09:39:59Z</time>
      </trkpt>
      <trkpt lat="44.65017" lon="-0.36237">
        <ele>14.08</ele>
        <time>2013-07-23T09:40:07Z</time>
      </trkpt>
      <trkpt lat="44.65005" lon="-0.3613">
        <ele>13.12</ele>
        <time>2013-07-23T09:40:22Z</time>
      </trkpt>
      <trkpt lat="44.65005" lon="-0.36122">
        <ele>13.6</ele>
        <time>2013-07-23T09:40:23Z</time>
      </trkpt>
      <trkpt lat="44.65016" lon="-0.36084">
        <ele>12.63</ele>
        <time>2013-07-23T09:40:29Z</time>
      </trkpt>
      <trkpt lat="44.65032" lon="-0.3607">
        <ele>12.15</ele>
        <time>2013-07-23T09:40:33Z</time>
      </trkpt>
      <trkpt lat="44.65043" lon="-0.36048">
        <ele>12.15</ele>
        <time>2013-07-23T09:40:37Z</time>
      </trkpt>
      <trkpt lat="44.65028" lon="-0.35999">
        <ele>10.71</ele>
        <time>2013-07-23T09:40:44Z</time>
      </trkpt>
      <trkpt lat="44.65005" lon="-0.35962">
        <ele>9.27</ele>
        <time>2013-07-23T09:40:50Z</time>
      </trkpt>
      <trkpt lat="44.64995" lon="-0.35935">
        <ele>9.27</ele>
        <time>2013-07-23T09:40:54Z</time>
      </trkpt>
      <trkpt lat="44.6497" lon="-0.35903">
        <ele>10.23</ele>
        <time>2013-07-23T09:41:02Z</time>
      </trkpt>
      <trkpt lat="44.64937" lon="-0.35864">
        <ele>15.04</ele>
        <time>2013-07-23T09:41:15Z</time>
      </trkpt>
      <trkpt lat="44.64936" lon="-0.35862">
        <ele>15.52</ele>
        <time>2013-07-23T09:41:28Z</time>
      </trkpt>
      <trkpt lat="44.64937" lon="-0.35861">
        <ele>15.52</ele>
        <time>2013-07-23T09:41:52Z</time>
      </trkpt>
      <trkpt lat="44.64937" lon="-0.3586">
        <ele>15.52</ele>
        <time>2013-07-23T09:42:03Z</time>
      </trkpt>
      <trkpt lat="44.6493" lon="-0.35854">
        <ele>15.52</ele>
        <time>2013-07-23T09:42:08Z</time>
      </trkpt>
      <trkpt lat="44.64902" lon="-0.35814">
        <ele>14.56</ele>
        <time>2013-07-23T09:42:21Z</time>
      </trkpt>
      <trkpt lat="44.64886" lon="-0.35788">
        <ele>14.08</ele>
        <time>2013-07-23T09:42:27Z</time>
      </trkpt>
      <trkpt lat="44.64842" lon="-0.35713">
        <ele>13.6</ele>
        <time>2013-07-23T09:42:44Z</time>
      </trkpt>
      <trkpt lat="44.64806" lon="-0.3565">
        <ele>13.6</ele>
        <time>2013-07-23T09:42:58Z</time>
      </trkpt>
      <trkpt lat="44.64798" lon="-0.35637">
        <ele>13.6</ele>
        <time>2013-07-23T09:43:01Z</time>
      </trkpt>
      <trkpt lat="44.64759" lon="-0.35577">
        <ele>14.08</ele>
        <time>2013-07-23T09:43:16Z</time>
      </trkpt>
      <trkpt lat="44.64757" lon="-0.35574">
        <ele>14.08</ele>
        <time>2013-07-23T09:43:17Z</time>
      </trkpt>
      <trkpt lat="44.64726" lon="-0.35585">
        <ele>13.12</ele>
        <time>2013-07-23T09:43:27Z</time>
      </trkpt>
      <trkpt lat="44.64696" lon="-0.35604">
        <ele>13.12</ele>
        <time>2013-07-23T09:43:34Z</time>
      </trkpt>
      <trkpt lat="44.64669" lon="-0.35588">
        <ele>14.08</ele>
        <time>2013-07-23T09:43:41Z</time>
      </trkpt>
      <trkpt lat="44.64655" lon="-0.35566">
        <ele>15.04</ele>
        <time>2013-07-23T09:43:46Z</time>
      </trkpt>
      <trkpt lat="44.64607" lon="-0.35496">
        <ele>14.56</ele>
        <time>2013-07-23T09:44:02Z</time>
      </trkpt>
      <trkpt lat="44.64601" lon="-0.35487">
        <ele>14.56</ele>
        <time>2013-07-23T09:44:04Z</time>
      </trkpt>
      <trkpt lat="44.64548" lon="-0.35409">
        <ele>15.52</ele>
        <time>2013-07-23T09:44:21Z</time>
      </trkpt>
      <trkpt lat="44.64497" lon="-0.35337">
        <ele>15.04</ele>
        <time>2013-07-23T09:44:37Z</time>
      </trkpt>
      <trkpt lat="44.64484" lon="-0.35319">
        <ele>14.56</ele>
        <time>2013-07-23T09:44:41Z</time>
      </trkpt>
      <trkpt lat="44.64469" lon="-0.35296">
        <ele>14.08</ele>
        <time>2013-07-23T09:44:46Z</time>
      </trkpt>
      <trkpt lat="44.64452" lon="-0.35284">
        <ele>14.56</ele>
        <time>2013-07-23T09:44:50Z</time>
      </trkpt>
      <trkpt lat="44.64394" lon="-0.35296">
        <ele>15.04</ele>
        <time>2013-07-23T09:45:02Z</time>
      </trkpt>
      <trkpt lat="44.64322" lon="-0.35325">
        <ele>14.08</ele>
        <time>2013-07-23T09:45:17Z</time>
      </trkpt>
      <trkpt lat="44.64264" lon="-0.3534">
        <ele>13.6</ele>
        <time>2013-07-23T09:45:30Z</time>
      </trkpt>
      <trkpt lat="44.64251" lon="-0.35343">
        <ele>14.08</ele>
        <time>2013-07-23T09:45:33Z</time>
      </trkpt>
      <trkpt lat="44.64224" lon="-0.35345">
        <ele>13.6</ele>
        <time>2013-07-23T09:45:39Z</time>
      </trkpt>
      <trkpt lat="44.64161" lon="-0.35345">
        <ele>15.52</ele>
        <time>2013-07-23T09:45:54Z</time>
      </trkpt>
      <trkpt lat="44.64153" lon="-0.35346">
        <ele>15.52</ele>
        <time>2013-07-23T09:45:56Z</time>
      </trkpt>
      <trkpt lat="44.64131" lon="-0.35345">
        <ele>15.52</ele>
        <time>2013-07-23T09:46:01Z</time>
      </trkpt>
      <trkpt lat="44.64056" lon="-0.35347">
        <ele>14.08</ele>
        <time>2013-07-23T09:46:17Z</time>
      </trkpt>
      <trkpt lat="44.63988" lon="-0.35359">
        <ele>13.12</ele>
        <time>2013-07-23T09:46:31Z</time>
      </trkpt>
      <trkpt lat="44.63974" lon="-0.35362">
        <ele>12.63</ele>
        <time>2013-07-23T09:46:34Z</time>
      </trkpt>
      <trkpt lat="44.63951" lon="-0.35365">
        <ele>13.12</ele>
        <time>2013-07-23T09:46:39Z</time>
      </trkpt>
      <trkpt lat="44.6387" lon="-0.35374">
        <ele>14.08</ele>
        <time>2013-07-23T09:46:56Z</time>
      </trkpt>
      <trkpt lat="44.63861" lon="-0.35375">
        <ele>14.08</ele>
        <time>2013-07-23T09:46:58Z</time>
      </trkpt>
      <trkpt lat="44.63825" lon="-0.35378">
        <ele>14.08</ele>
        <time>2013-07-23T09:47:06Z</time>
      </trkpt>
      <trkpt lat="44.63747" lon="-0.35375">
        <ele>14.56</ele>
        <time>2013-07-23T09:47:23Z</time>
      </trkpt>
      <trkpt lat="44.63686" lon="-0.35333">
        <ele>14.08</ele>
        <time>2013-07-23T09:47:38Z</time>
      </trkpt>
      <trkpt lat="44.63623" lon="-0.35281">
        <ele>15.04</ele>
        <time>2013-07-23T09:47:54Z</time>
      </trkpt>
      <trkpt lat="44.63559" lon="-0.35236">
        <ele>14.56</ele>
        <time>2013-07-23T09:48:09Z</time>
      </trkpt>
      <trkpt lat="44.63506" lon="-0.35193">
        <ele>14.56</ele>
        <time>2013-07-23T09:48:22Z</time>
      </trkpt>
      <trkpt lat="44.63477" lon="-0.35159">
        <ele>14.56</ele>
        <time>2013-07-23T09:48:30Z</time>
      </trkpt>
      <trkpt lat="44.6345" lon="-0.35122">
        <ele>13.6</ele>
        <time>2013-07-23T09:48:38Z</time>
      </trkpt>
      <trkpt lat="44.63413" lon="-0.35085">
        <ele>12.15</ele>
        <time>2013-07-23T09:48:47Z</time>
      </trkpt>
      <trkpt lat="44.63347" lon="-0.35038">
        <ele>10.23</ele>
        <time>2013-07-23T09:49:03Z</time>
      </trkpt>
      <trkpt lat="44.63338" lon="-0.35029">
        <ele>10.23</ele>
        <time>2013-07-23T09:49:07Z</time>
      </trkpt>
      <trkpt lat="44.63337" lon="-0.35017">
        <ele>10.71</ele>
        <time>2013-07-23T09:49:11Z</time>
      </trkpt>
      <trkpt lat="44.6335" lon="-0.34943">
        <ele>10.71</ele>
        <time>2013-07-23T09:49:25Z</time>
      </trkpt>
      <trkpt lat="44.63351" lon="-0.34937">
        <ele>11.19</ele>
        <time>2013-07-23T09:49:26Z</time>
      </trkpt>
      <trkpt lat="44.63356" lon="-0.34918">
        <ele>10.71</ele>
        <time>2013-07-23T09:49:29Z</time>
      </trkpt>
      <trkpt lat="44.6337" lon="-0.34874">
        <ele>10.71</ele>
        <time>2013-07-23T09:49:36Z</time>
      </trkpt>
      <trkpt lat="44.6339" lon="-0.34801">
        <ele>10.71</ele>
        <time>2013-07-23T09:49:47Z</time>
      </trkpt>
      <trkpt lat="44.63419" lon="-0.34719">
        <ele>9.75</ele>
        <time>2013-07-23T09:50:01Z</time>
      </trkpt>
      <trkpt lat="44.63445" lon="-0.34655">
        <ele>10.71</ele>
        <time>2013-07-23T09:50:13Z</time>
      </trkpt>
      <trkpt lat="44.63453" lon="-0.34634">
        <ele>11.19</ele>
        <time>2013-07-23T09:50:17Z</time>
      </trkpt>
      <trkpt lat="44.63465" lon="-0.34609">
        <ele>11.67</ele>
        <time>2013-07-23T09:50:22Z</time>
      </trkpt>
      <trkpt lat="44.63472" lon="-0.34593">
        <ele>11.67</ele>
        <time>2013-07-23T09:50:25Z</time>
      </trkpt>
      <trkpt lat="44.6348" lon="-0.34572">
        <ele>11.67</ele>
        <time>2013-07-23T09:50:29Z</time>
      </trkpt>
      <trkpt lat="44.63483" lon="-0.34555">
        <ele>11.67</ele>
        <time>2013-07-23T09:50:32Z</time>
      </trkpt>
      <trkpt lat="44.63471" lon="-0.34471">
        <ele>12.15</ele>
        <time>2013-07-23T09:50:46Z</time>
      </trkpt>
      <trkpt lat="44.6347" lon="-0.34465">
        <ele>12.15</ele>
        <time>2013-07-23T09:50:47Z</time>
      </trkpt>
      <trkpt lat="44.63469" lon="-0.3439">
        <ele>13.12</ele>
        <time>2013-07-23T09:50:59Z</time>
      </trkpt>
      <trkpt lat="44.63466" lon="-0.34341">
        <ele>12.15</ele>
        <time>2013-07-23T09:51:06Z</time>
      </trkpt>
      <trkpt lat="44.63468" lon="-0.34303">
        <ele>13.12</ele>
        <time>2013-07-23T09:51:12Z</time>
      </trkpt>
      <trkpt lat="44.63487" lon="-0.34234">
        <ele>9.75</ele>
        <time>2013-07-23T09:51:23Z</time>
      </trkpt>
      <trkpt lat="44.63487" lon="-0.34229">
        <ele>10.23</ele>
        <time>2013-07-23T09:51:24Z</time>
      </trkpt>
      <trkpt lat="44.63486" lon="-0.34223">
        <ele>10.71</ele>
        <time>2013-07-23T09:51:25Z</time>
      </trkpt>
      <trkpt lat="44.63484" lon="-0.34218">
        <ele>10.71</ele>
        <time>2013-07-23T09:51:26Z</time>
      </trkpt>
      <trkpt lat="44.63483" lon="-0.34213">
        <ele>10.71</ele>
        <time>2013-07-23T09:51:27Z</time>
      </trkpt>
      <trkpt lat="44.63477" lon="-0.34196">
        <ele>10.71</ele>
        <time>2013-07-23T09:51:30Z</time>
      </trkpt>
      <trkpt lat="44.63475" lon="-0.34191">
        <ele>10.71</ele>
        <time>2013-07-23T09:51:31Z</time>
      </trkpt>
      <trkpt lat="44.63474" lon="-0.34185">
        <ele>10.71</ele>
        <time>2013-07-23T09:51:32Z</time>
      </trkpt>
      <trkpt lat="44.63474" lon="-0.34179">
        <ele>11.19</ele>
        <time>2013-07-23T09:51:33Z</time>
      </trkpt>
      <trkpt lat="44.63474" lon="-0.34173">
        <ele>11.19</ele>
        <time>2013-07-23T09:51:34Z</time>
      </trkpt>
      <trkpt lat="44.63474" lon="-0.34167">
        <ele>11.19</ele>
        <time>2013-07-23T09:51:35Z</time>
      </trkpt>
      <trkpt lat="44.63475" lon="-0.34161">
        <ele>11.19</ele>
        <time>2013-07-23T09:51:36Z</time>
      </trkpt>
      <trkpt lat="44.63478" lon="-0.34149">
        <ele>11.19</ele>
        <time>2013-07-23T09:51:38Z</time>
      </trkpt>
      <trkpt lat="44.6348" lon="-0.34137">
        <ele>11.19</ele>
        <time>2013-07-23T09:51:40Z</time>
      </trkpt>
      <trkpt lat="44.63488" lon="-0.34101">
        <ele>12.15</ele>
        <time>2013-07-23T09:51:46Z</time>
      </trkpt>
      <trkpt lat="44.63491" lon="-0.34077">
        <ele>12.63</ele>
        <time>2013-07-23T09:51:50Z</time>
      </trkpt>
      <trkpt lat="44.63495" lon="-0.34047">
        <ele>12.63</ele>
        <time>2013-07-23T09:51:56Z</time>
      </trkpt>
      <trkpt lat="44.63498" lon="-0.33999">
        <ele>12.63</ele>
        <time>2013-07-23T09:52:07Z</time>
      </trkpt>
      <trkpt lat="44.63503" lon="-0.33898">
        <ele>14.08</ele>
        <time>2013-07-23T09:52:25Z</time>
      </trkpt>
      <trkpt lat="44.63503" lon="-0.33875">
        <ele>14.56</ele>
        <time>2013-07-23T09:52:29Z</time>
      </trkpt>
      <trkpt lat="44.63503" lon="-0.3387">
        <ele>15.04</ele>
        <time>2013-07-23T09:52:30Z</time>
      </trkpt>
      <trkpt lat="44.63504" lon="-0.33852">
        <ele>15.52</ele>
        <time>2013-07-23T09:52:33Z</time>
      </trkpt>
      <trkpt lat="44.63516" lon="-0.33747">
        <ele>16.48</ele>
        <time>2013-07-23T09:52:52Z</time>
      </trkpt>
      <trkpt lat="44.63523" lon="-0.33707">
        <ele>16</ele>
        <time>2013-07-23T09:53:04Z</time>
      </trkpt>
      <trkpt lat="44.63524" lon="-0.33707">
        <ele>15.52</ele>
        <time>2013-07-23T09:53:25Z</time>
      </trkpt>
      <trkpt lat="44.63524" lon="-0.33704">
        <ele>16</ele>
        <time>2013-07-23T09:53:41Z</time>
      </trkpt>
      <trkpt lat="44.63532" lon="-0.33691">
        <ele>16.48</ele>
        <time>2013-07-23T09:53:46Z</time>
      </trkpt>
      <trkpt lat="44.6355" lon="-0.33621">
        <ele>16</ele>
        <time>2013-07-23T09:54:01Z</time>
      </trkpt>
      <trkpt lat="44.63572" lon="-0.33543">
        <ele>15.52</ele>
        <time>2013-07-23T09:54:17Z</time>
      </trkpt>
      <trkpt lat="44.63584" lon="-0.33495">
        <ele>15.04</ele>
        <time>2013-07-23T09:54:26Z</time>
      </trkpt>
      <trkpt lat="44.63587" lon="-0.33484">
        <ele>15.04</ele>
        <time>2013-07-23T09:54:28Z</time>
      </trkpt>
      <trkpt lat="44.63585" lon="-0.33425">
        <ele>15.04</ele>
        <time>2013-07-23T09:54:37Z</time>
      </trkpt>
      <trkpt lat="44.63588" lon="-0.3338">
        <ele>13.6</ele>
        <time>2013-07-23T09:54:44Z</time>
      </trkpt>
      <trkpt lat="44.63573" lon="-0.33369">
        <ele>11.19</ele>
        <time>2013-07-23T09:54:49Z</time>
      </trkpt>
      <trkpt lat="44.63519" lon="-0.33355">
        <ele>13.6</ele>
        <time>2013-07-23T09:55:03Z</time>
      </trkpt>
      <trkpt lat="44.63513" lon="-0.33355">
        <ele>14.56</ele>
        <time>2013-07-23T09:55:13Z</time>
      </trkpt>
      <trkpt lat="44.63514" lon="-0.33353">
        <ele>14.56</ele>
        <time>2013-07-23T09:55:32Z</time>
      </trkpt>
      <trkpt lat="44.63537" lon="-0.33355">
        <ele>13.6</ele>
        <time>2013-07-23T09:55:43Z</time>
      </trkpt>
      <trkpt lat="44.63581" lon="-0.3337">
        <ele>14.08</ele>
        <time>2013-07-23T09:55:56Z</time>
      </trkpt>
      <trkpt lat="44.63606" lon="-0.33377">
        <ele>15.04</ele>
        <time>2013-07-23T09:56:04Z</time>
      </trkpt>
      <trkpt lat="44.63618" lon="-0.33356">
        <ele>16</ele>
        <time>2013-07-23T09:56:10Z</time>
      </trkpt>
      <trkpt lat="44.63621" lon="-0.33345">
        <ele>15.52</ele>
        <time>2013-07-23T09:56:12Z</time>
      </trkpt>
      <trkpt lat="44.63645" lon="-0.33333">
        <ele>14.56</ele>
        <time>2013-07-23T09:56:19Z</time>
      </trkpt>
      <trkpt lat="44.63709" lon="-0.33356">
        <ele>12.63</ele>
        <time>2013-07-23T09:56:35Z</time>
      </trkpt>
      <trkpt lat="44.63761" lon="-0.33386">
        <ele>14.08</ele>
        <time>2013-07-23T09:56:50Z</time>
      </trkpt>
      <trkpt lat="44.638" lon="-0.33411">
        <ele>15.04</ele>
        <time>2013-07-23T09:57:02Z</time>
      </trkpt>
      <trkpt lat="44.63826" lon="-0.33438">
        <ele>14.56</ele>
        <time>2013-07-23T09:57:10Z</time>
      </trkpt>
      <trkpt lat="44.63866" lon="-0.33473">
        <ele>13.12</ele>
        <time>2013-07-23T09:57:22Z</time>
      </trkpt>
      <trkpt lat="44.63874" lon="-0.33502">
        <ele>12.63</ele>
        <time>2013-07-23T09:57:29Z</time>
      </trkpt>
      <trkpt lat="44.63883" lon="-0.33499">
        <ele>11.67</ele>
        <time>2013-07-23T09:57:33Z</time>
      </trkpt>
      <trkpt lat="44.63907" lon="-0.33474">
        <ele>7.83</ele>
        <time>2013-07-23T09:57:42Z</time>
      </trkpt>
      <trkpt lat="44.63939" lon="-0.33436">
        <ele>4.46</ele>
        <time>2013-07-23T09:57:53Z</time>
      </trkpt>
      <trkpt lat="44.63941" lon="-0.33433">
        <ele>3.98</ele>
        <time>2013-07-23T09:57:54Z</time>
      </trkpt>
      <trkpt lat="44.63947" lon="-0.33426">
        <ele>4.46</ele>
        <time>2013-07-23T09:57:57Z</time>
      </trkpt>
      <trkpt lat="44.6395" lon="-0.33424">
        <ele>4.46</ele>
        <time>2013-07-23T09:58:10Z</time>
      </trkpt>
      <trkpt lat="44.63959" lon="-0.3341">
        <ele>4.94</ele>
        <time>2013-07-23T09:58:23Z</time>
      </trkpt>
      <trkpt lat="44.63988" lon="-0.33385">
        <ele>4.94</ele>
        <time>2013-07-23T09:58:37Z</time>
      </trkpt>
      <trkpt lat="44.63992" lon="-0.33385">
        <ele>4.94</ele>
        <time>2013-07-23T09:58:39Z</time>
      </trkpt>
      <trkpt lat="44.63998" lon="-0.33384">
        <ele>6.87</ele>
        <time>2013-07-23T09:58:48Z</time>
      </trkpt>
      <trkpt lat="44.64015" lon="-0.33385">
        <ele>6.87</ele>
        <time>2013-07-23T09:59:01Z</time>
      </trkpt>
      <trkpt lat="44.64054" lon="-0.33387">
        <ele>6.39</ele>
        <time>2013-07-23T09:59:14Z</time>
      </trkpt>
      <trkpt lat="44.64076" lon="-0.3339">
        <ele>6.39</ele>
        <time>2013-07-23T09:59:25Z</time>
      </trkpt>
      <trkpt lat="44.64081" lon="-0.33392">
        <ele>5.91</ele>
        <time>2013-07-23T09:59:50Z</time>
      </trkpt>
      <trkpt lat="44.64109" lon="-0.33397">
        <ele>6.39</ele>
        <time>2013-07-23T10:00:02Z</time>
      </trkpt>
      <trkpt lat="44.64146" lon="-0.3341">
        <ele>7.35</ele>
        <time>2013-07-23T10:00:14Z</time>
      </trkpt>
      <trkpt lat="44.64185" lon="-0.3342">
        <ele>6.87</ele>
        <time>2013-07-23T10:00:25Z</time>
      </trkpt>
      <trkpt lat="44.64218" lon="-0.33422">
        <ele>7.35</ele>
        <time>2013-07-23T10:00:38Z</time>
      </trkpt>
      <trkpt lat="44.64247" lon="-0.33424">
        <ele>7.83</ele>
        <time>2013-07-23T10:00:49Z</time>
      </trkpt>
      <trkpt lat="44.64289" lon="-0.33429">
        <ele>8.31</ele>
        <time>2013-07-23T10:01:02Z</time>
      </trkpt>
      <trkpt lat="44.64342" lon="-0.33434">
        <ele>6.87</ele>
        <time>2013-07-23T10:01:17Z</time>
      </trkpt>
      <trkpt lat="44.64377" lon="-0.33453">
        <ele>6.87</ele>
        <time>2013-07-23T10:01:29Z</time>
      </trkpt>
      <trkpt lat="44.64403" lon="-0.33487">
        <ele>6.87</ele>
        <time>2013-07-23T10:01:41Z</time>
      </trkpt>
      <trkpt lat="44.64435" lon="-0.3354">
        <ele>6.39</ele>
        <time>2013-07-23T10:01:57Z</time>
      </trkpt>
      <trkpt lat="44.64455" lon="-0.33584">
        <ele>5.42</ele>
        <time>2013-07-23T10:02:12Z</time>
      </trkpt>
      <trkpt lat="44.64485" lon="-0.33609">
        <ele>5.42</ele>
        <time>2013-07-23T10:02:25Z</time>
      </trkpt>
      <trkpt lat="44.64511" lon="-0.33652">
        <ele>5.91</ele>
        <time>2013-07-23T10:02:38Z</time>
      </trkpt>
      <trkpt lat="44.6453" lon="-0.33701">
        <ele>5.91</ele>
        <time>2013-07-23T10:02:51Z</time>
      </trkpt>
      <trkpt lat="44.64544" lon="-0.33739">
        <ele>5.91</ele>
        <time>2013-07-23T10:03:02Z</time>
      </trkpt>
      <trkpt lat="44.64566" lon="-0.33786">
        <ele>5.42</ele>
        <time>2013-07-23T10:03:15Z</time>
      </trkpt>
      <trkpt lat="44.64588" lon="-0.33778">
        <ele>5.91</ele>
        <time>2013-07-23T10:03:23Z</time>
      </trkpt>
      <trkpt lat="44.64611" lon="-0.33765">
        <ele>5.42</ele>
        <time>2013-07-23T10:03:32Z</time>
      </trkpt>
      <trkpt lat="44.64619" lon="-0.33765">
        <ele>5.91</ele>
        <time>2013-07-23T10:03:35Z</time>
      </trkpt>
      <trkpt lat="44.64654" lon="-0.33799">
        <ele>4.94</ele>
        <time>2013-07-23T10:03:50Z</time>
      </trkpt>
      <trkpt lat="44.6468" lon="-0.33815">
        <ele>4.46</ele>
        <time>2013-07-23T10:04:01Z</time>
      </trkpt>
      <trkpt lat="44.64689" lon="-0.33823">
        <ele>3.02</ele>
        <time>2013-07-23T10:04:08Z</time>
      </trkpt>
      <trkpt lat="44.64697" lon="-0.33831">
        <ele>3.02</ele>
        <time>2013-07-23T10:04:14Z</time>
      </trkpt>
      <trkpt lat="44.64684" lon="-0.33869">
        <ele>3.5</ele>
        <time>2013-07-23T10:04:26Z</time>
      </trkpt>
      <trkpt lat="44.64672" lon="-0.33914">
        <ele>4.46</ele>
        <time>2013-07-23T10:04:40Z</time>
      </trkpt>
      <trkpt lat="44.6466" lon="-0.33952">
        <ele>5.42</ele>
        <time>2013-07-23T10:04:51Z</time>
      </trkpt>
      <trkpt lat="44.64649" lon="-0.34001">
        <ele>5.91</ele>
        <time>2013-07-23T10:05:03Z</time>
      </trkpt>
      <trkpt lat="44.64635" lon="-0.34056">
        <ele>5.42</ele>
        <time>2013-07-23T10:05:16Z</time>
      </trkpt>
      <trkpt lat="44.64622" lon="-0.34104">
        <ele>5.42</ele>
        <time>2013-07-23T10:05:27Z</time>
      </trkpt>
      <trkpt lat="44.64605" lon="-0.3417">
        <ele>6.87</ele>
        <time>2013-07-23T10:05:40Z</time>
      </trkpt>
      <trkpt lat="44.64595" lon="-0.34218">
        <ele>8.79</ele>
        <time>2013-07-23T10:05:51Z</time>
      </trkpt>
      <trkpt lat="44.64602" lon="-0.34234">
        <ele>9.75</ele>
        <time>2013-07-23T10:05:55Z</time>
      </trkpt>
      <trkpt lat="44.64608" lon="-0.34243">
        <ele>9.27</ele>
        <time>2013-07-23T10:05:57Z</time>
      </trkpt>
      <trkpt lat="44.64616" lon="-0.34254">
        <ele>8.79</ele>
        <time>2013-07-23T10:05:59Z</time>
      </trkpt>
      <trkpt lat="44.64641" lon="-0.34291">
        <ele>7.83</ele>
        <time>2013-07-23T10:06:09Z</time>
      </trkpt>
      <trkpt lat="44.64661" lon="-0.34334">
        <ele>5.91</ele>
        <time>2013-07-23T10:06:21Z</time>
      </trkpt>
      <trkpt lat="44.64686" lon="-0.34386">
        <ele>5.91</ele>
        <time>2013-07-23T10:06:35Z</time>
      </trkpt>
      <trkpt lat="44.64708" lon="-0.34427">
        <ele>5.42</ele>
        <time>2013-07-23T10:06:46Z</time>
      </trkpt>
      <trkpt lat="44.64736" lon="-0.34481">
        <ele>4.94</ele>
        <time>2013-07-23T10:06:59Z</time>
      </trkpt>
      <trkpt lat="44.64764" lon="-0.34551">
        <ele>6.39</ele>
        <time>2013-07-23T10:07:16Z</time>
      </trkpt>
      <trkpt lat="44.64785" lon="-0.34587">
        <ele>5.42</ele>
        <time>2013-07-23T10:07:27Z</time>
      </trkpt>
      <trkpt lat="44.64806" lon="-0.34634">
        <ele>5.91</ele>
        <time>2013-07-23T10:07:40Z</time>
      </trkpt>
      <trkpt lat="44.64824" lon="-0.34666">
        <ele>5.91</ele>
        <time>2013-07-23T10:07:51Z</time>
      </trkpt>
      <trkpt lat="44.64843" lon="-0.34692">
        <ele>4.46</ele>
        <time>2013-07-23T10:08:02Z</time>
      </trkpt>
      <trkpt lat="44.6486" lon="-0.34728">
        <ele>4.46</ele>
        <time>2013-07-23T10:08:16Z</time>
      </trkpt>
      <trkpt lat="44.64879" lon="-0.34764">
        <ele>3.98</ele>
        <time>2013-07-23T10:08:29Z</time>
      </trkpt>
      <trkpt lat="44.64901" lon="-0.34801">
        <ele>3.98</ele>
        <time>2013-07-23T10:08:41Z</time>
      </trkpt>
      <trkpt lat="44.64907" lon="-0.34811">
        <ele>4.46</ele>
        <time>2013-07-23T10:08:44Z</time>
      </trkpt>
      <trkpt lat="44.64947" lon="-0.34852">
        <ele>5.91</ele>
        <time>2013-07-23T10:08:58Z</time>
      </trkpt>
      <trkpt lat="44.64976" lon="-0.34898">
        <ele>5.42</ele>
        <time>2013-07-23T10:09:11Z</time>
      </trkpt>
      <trkpt lat="44.65002" lon="-0.34943">
        <ele>4.46</ele>
        <time>2013-07-23T10:09:24Z</time>
      </trkpt>
      <trkpt lat="44.65029" lon="-0.34987">
        <ele>3.98</ele>
        <time>2013-07-23T10:09:36Z</time>
      </trkpt>
      <trkpt lat="44.65049" lon="-0.3503">
        <ele>5.42</ele>
        <time>2013-07-23T10:09:47Z</time>
      </trkpt>
      <trkpt lat="44.65079" lon="-0.3509">
        <ele>6.39</ele>
        <time>2013-07-23T10:10:03Z</time>
      </trkpt>
      <trkpt lat="44.65107" lon="-0.35136">
        <ele>6.87</ele>
        <time>2013-07-23T10:10:17Z</time>
      </trkpt>
      <trkpt lat="44.65132" lon="-0.35174">
        <ele>6.39</ele>
        <time>2013-07-23T10:10:29Z</time>
      </trkpt>
      <trkpt lat="44.65161" lon="-0.35203">
        <ele>6.39</ele>
        <time>2013-07-23T10:10:41Z</time>
      </trkpt>
      <trkpt lat="44.65187" lon="-0.35235">
        <ele>4.46</ele>
        <time>2013-07-23T10:10:52Z</time>
      </trkpt>
      <trkpt lat="44.65216" lon="-0.35264">
        <ele>4.46</ele>
        <time>2013-07-23T10:11:05Z</time>
      </trkpt>
      <trkpt lat="44.65225" lon="-0.35271">
        <ele>5.42</ele>
        <time>2013-07-23T10:11:15Z</time>
      </trkpt>
      <trkpt lat="44.65224" lon="-0.35271">
        <ele>5.42</ele>
        <time>2013-07-23T10:11:39Z</time>
      </trkpt>
      <trkpt lat="44.65234" lon="-0.3528">
        <ele>6.39</ele>
        <time>2013-07-23T10:11:56Z</time>
      </trkpt>
      <trkpt lat="44.65244" lon="-0.35288">
        <ele>6.39</ele>
        <time>2013-07-23T10:12:02Z</time>
      </trkpt>
      <trkpt lat="44.65247" lon="-0.35291">
        <ele>5.91</ele>
        <time>2013-07-23T10:12:14Z</time>
      </trkpt>
      <trkpt lat="44.65252" lon="-0.35297">
        <ele>5.42</ele>
        <time>2013-07-23T10:12:37Z</time>
      </trkpt>
      <trkpt lat="44.65257" lon="-0.35303">
        <ele>4.94</ele>
        <time>2013-07-23T10:12:40Z</time>
      </trkpt>
      <trkpt lat="44.65269" lon="-0.35299">
        <ele>4.46</ele>
        <time>2013-07-23T10:12:45Z</time>
      </trkpt>
      <trkpt lat="44.65298" lon="-0.35316">
        <ele>5.91</ele>
        <time>2013-07-23T10:12:58Z</time>
      </trkpt>
      <trkpt lat="44.65337" lon="-0.35361">
        <ele>8.79</ele>
        <time>2013-07-23T10:13:14Z</time>
      </trkpt>
      <trkpt lat="44.65362" lon="-0.35398">
        <ele>11.67</ele>
        <time>2013-07-23T10:13:26Z</time>
      </trkpt>
      <trkpt lat="44.65403" lon="-0.35444">
        <ele>11.67</ele>
        <time>2013-07-23T10:13:40Z</time>
      </trkpt>
      <trkpt lat="44.65448" lon="-0.35479">
        <ele>9.75</ele>
        <time>2013-07-23T10:13:54Z</time>
      </trkpt>
      <trkpt lat="44.65497" lon="-0.35507">
        <ele>10.23</ele>
        <time>2013-07-23T10:14:08Z</time>
      </trkpt>
      <trkpt lat="44.65514" lon="-0.35536">
        <ele>12.63</ele>
        <time>2013-07-23T10:14:17Z</time>
      </trkpt>
      <trkpt lat="44.65514" lon="-0.3554">
        <ele>13.12</ele>
        <time>2013-07-23T10:14:18Z</time>
      </trkpt>
      <trkpt lat="44.65502" lon="-0.35559">
        <ele>15.04</ele>
        <time>2013-07-23T10:14:26Z</time>
      </trkpt>
      <trkpt lat="44.65492" lon="-0.35576">
        <ele>17.92</ele>
        <time>2013-07-23T10:14:34Z</time>
      </trkpt>
      <trkpt lat="44.65484" lon="-0.35587">
        <ele>16.96</ele>
        <time>2013-07-23T10:14:39Z</time>
      </trkpt>
      <trkpt lat="44.65459" lon="-0.35621">
        <ele>13.6</ele>
        <time>2013-07-23T10:14:52Z</time>
      </trkpt>
      <trkpt lat="44.6543" lon="-0.35667">
        <ele>11.19</ele>
        <time>2013-07-23T10:15:05Z</time>
      </trkpt>
      <trkpt lat="44.65414" lon="-0.35706">
        <ele>12.15</ele>
        <time>2013-07-23T10:15:16Z</time>
      </trkpt>
      <trkpt lat="44.65449" lon="-0.35752">
        <ele>14.08</ele>
        <time>2013-07-23T10:15:31Z</time>
      </trkpt>
      <trkpt lat="44.65451" lon="-0.35755">
        <ele>14.08</ele>
        <time>2013-07-23T10:15:35Z</time>
      </trkpt>
      <trkpt lat="44.65465" lon="-0.3576">
        <ele>13.6</ele>
        <time>2013-07-23T10:15:44Z</time>
      </trkpt>
      <trkpt lat="44.65492" lon="-0.35747">
        <ele>12.63</ele>
        <time>2013-07-23T10:15:56Z</time>
      </trkpt>
      <trkpt lat="44.65509" lon="-0.35711">
        <ele>11.67</ele>
        <time>2013-07-23T10:16:07Z</time>
      </trkpt>
      <trkpt lat="44.6554" lon="-0.35701">
        <ele>11.67</ele>
        <time>2013-07-23T10:16:18Z</time>
      </trkpt>
      <trkpt lat="44.6557" lon="-0.3573">
        <ele>12.63</ele>
        <time>2013-07-23T10:16:30Z</time>
      </trkpt>
      <trkpt lat="44.65601" lon="-0.35762">
        <ele>13.12</ele>
        <time>2013-07-23T10:16:45Z</time>
      </trkpt>
      <trkpt lat="44.6562" lon="-0.35782">
        <ele>13.12</ele>
        <time>2013-07-23T10:16:56Z</time>
      </trkpt>
      <trkpt lat="44.65648" lon="-0.35815">
        <ele>12.15</ele>
        <time>2013-07-23T10:17:09Z</time>
      </trkpt>
      <trkpt lat="44.65658" lon="-0.35822">
        <ele>12.15</ele>
        <time>2013-07-23T10:17:13Z</time>
      </trkpt>
      <trkpt lat="44.6567" lon="-0.35814">
        <ele>10.71</ele>
        <time>2013-07-23T10:17:18Z</time>
      </trkpt>
      <trkpt lat="44.65686" lon="-0.35784">
        <ele>10.23</ele>
        <time>2013-07-23T10:17:29Z</time>
      </trkpt>
      <trkpt lat="44.65696" lon="-0.35779">
        <ele>10.71</ele>
        <time>2013-07-23T10:17:40Z</time>
      </trkpt>
      <trkpt lat="44.65695" lon="-0.35778">
        <ele>10.71</ele>
        <time>2013-07-23T10:18:04Z</time>
      </trkpt>
      <trkpt lat="44.65696" lon="-0.35778">
        <ele>9.75</ele>
        <time>2013-07-23T10:18:29Z</time>
      </trkpt>
      <trkpt lat="44.65696" lon="-0.35778">
        <ele>9.75</ele>
        <time>2013-07-23T10:18:48Z</time>
      </trkpt>
      <trkpt lat="44.65696" lon="-0.35778">
        <ele>9.75</ele>
        <time>2013-07-23T10:18:49Z</time>
      </trkpt>
      <trkpt lat="44.65711" lon="-0.35805">
        <ele>9.75</ele>
        <time>2013-07-23T10:19:02Z</time>
      </trkpt>
      <trkpt lat="44.657" lon="-0.35833">
        <ele>8.79</ele>
        <time>2013-07-23T10:19:13Z</time>
      </trkpt>
      <trkpt lat="44.65687" lon="-0.35861">
        <ele>10.23</ele>
        <time>2013-07-23T10:19:24Z</time>
      </trkpt>
      <trkpt lat="44.65673" lon="-0.35886">
        <ele>11.67</ele>
        <time>2013-07-23T10:19:34Z</time>
      </trkpt>
      <trkpt lat="44.65672" lon="-0.35893">
        <ele>12.15</ele>
        <time>2013-07-23T10:19:37Z</time>
      </trkpt>
      <trkpt lat="44.65673" lon="-0.35904">
        <ele>12.63</ele>
        <time>2013-07-23T10:19:42Z</time>
      </trkpt>
      <trkpt lat="44.65665" lon="-0.35935">
        <ele>13.6</ele>
        <time>2013-07-23T10:19:53Z</time>
      </trkpt>
      <trkpt lat="44.65632" lon="-0.35948">
        <ele>13.6</ele>
        <time>2013-07-23T10:20:07Z</time>
      </trkpt>
      <trkpt lat="44.656" lon="-0.35942">
        <ele>13.12</ele>
        <time>2013-07-23T10:20:20Z</time>
      </trkpt>
      <trkpt lat="44.65574" lon="-0.35924">
        <ele>12.15</ele>
        <time>2013-07-23T10:20:31Z</time>
      </trkpt>
      <trkpt lat="44.65569" lon="-0.3592">
        <ele>12.15</ele>
        <time>2013-07-23T10:20:35Z</time>
      </trkpt>
      <trkpt lat="44.65567" lon="-0.35902">
        <ele>13.12</ele>
        <time>2013-07-23T10:20:42Z</time>
      </trkpt>
      <trkpt lat="44.65568" lon="-0.35896">
        <ele>11.67</ele>
        <time>2013-07-23T10:20:53Z</time>
      </trkpt>
      <trkpt lat="44.65568" lon="-0.35895">
        <ele>12.15</ele>
        <time>2013-07-23T10:21:05Z</time>
      </trkpt>
      <trkpt lat="44.65567" lon="-0.35895">
        <ele>12.15</ele>
        <time>2013-07-23T10:21:07Z</time>
      </trkpt>
      <trkpt lat="44.65557" lon="-0.35903">
        <ele>12.15</ele>
        <time>2013-07-23T10:21:14Z</time>
      </trkpt>
      <trkpt lat="44.65549" lon="-0.359">
        <ele>12.15</ele>
        <time>2013-07-23T10:21:19Z</time>
      </trkpt>
      <trkpt lat="44.65525" lon="-0.35867">
        <ele>12.63</ele>
        <time>2013-07-23T10:21:34Z</time>
      </trkpt>
      <trkpt lat="44.65511" lon="-0.35845">
        <ele>11.67</ele>
        <time>2013-07-23T10:21:44Z</time>
      </trkpt>
      <trkpt lat="44.65504" lon="-0.35829">
        <ele>10.71</ele>
        <time>2013-07-23T10:21:50Z</time>
      </trkpt>
      <trkpt lat="44.65483" lon="-0.35773">
        <ele>11.19</ele>
        <time>2013-07-23T10:22:06Z</time>
      </trkpt>
      <trkpt lat="44.65451" lon="-0.35759">
        <ele>12.63</ele>
        <time>2013-07-23T10:22:17Z</time>
      </trkpt>
      <trkpt lat="44.65447" lon="-0.35756">
        <ele>12.63</ele>
        <time>2013-07-23T10:22:20Z</time>
      </trkpt>
      <trkpt lat="44.65445" lon="-0.35751">
        <ele>12.63</ele>
        <time>2013-07-23T10:22:22Z</time>
      </trkpt>
      <trkpt lat="44.65468" lon="-0.35711">
        <ele>10.23</ele>
        <time>2013-07-23T10:22:33Z</time>
      </trkpt>
      <trkpt lat="44.6549" lon="-0.35682">
        <ele>9.27</ele>
        <time>2013-07-23T10:22:40Z</time>
      </trkpt>
      <trkpt lat="44.65511" lon="-0.35657">
        <ele>9.27</ele>
        <time>2013-07-23T10:22:46Z</time>
      </trkpt>
      <trkpt lat="44.65523" lon="-0.35639">
        <ele>9.27</ele>
        <time>2013-07-23T10:22:50Z</time>
      </trkpt>
      <trkpt lat="44.65538" lon="-0.35622">
        <ele>8.79</ele>
        <time>2013-07-23T10:22:54Z</time>
      </trkpt>
      <trkpt lat="44.65561" lon="-0.35617">
        <ele>8.31</ele>
        <time>2013-07-23T10:23:00Z</time>
      </trkpt>
      <trkpt lat="44.65595" lon="-0.3565">
        <ele>6.87</ele>
        <time>2013-07-23T10:23:10Z</time>
      </trkpt>
      <trkpt lat="44.65619" lon="-0.35679">
        <ele>6.39</ele>
        <time>2013-07-23T10:23:17Z</time>
      </trkpt>
      <trkpt lat="44.65656" lon="-0.35729">
        <ele>6.39</ele>
        <time>2013-07-23T10:23:30Z</time>
      </trkpt>
      <trkpt lat="44.65697" lon="-0.35772">
        <ele>7.83</ele>
        <time>2013-07-23T10:23:44Z</time>
      </trkpt>
      <trkpt lat="44.65734" lon="-0.3581">
        <ele>7.35</ele>
        <time>2013-07-23T10:23:57Z</time>
      </trkpt>
      <trkpt lat="44.65767" lon="-0.35843">
        <ele>8.79</ele>
        <time>2013-07-23T10:24:09Z</time>
      </trkpt>
      <trkpt lat="44.65788" lon="-0.3586">
        <ele>8.31</ele>
        <time>2013-07-23T10:24:17Z</time>
      </trkpt>
      <trkpt lat="44.65791" lon="-0.35873">
        <ele>8.79</ele>
        <time>2013-07-23T10:24:22Z</time>
      </trkpt>
      <trkpt lat="44.65772" lon="-0.35904">
        <ele>10.23</ele>
        <time>2013-07-23T10:24:33Z</time>
      </trkpt>
      <trkpt lat="44.65757" lon="-0.35934">
        <ele>12.63</ele>
        <time>2013-07-23T10:24:43Z</time>
      </trkpt>
      <trkpt lat="44.65724" lon="-0.35985">
        <ele>13.6</ele>
        <time>2013-07-23T10:24:55Z</time>
      </trkpt>
      <trkpt lat="44.65689" lon="-0.36034">
        <ele>13.12</ele>
        <time>2013-07-23T10:25:08Z</time>
      </trkpt>
      <trkpt lat="44.65658" lon="-0.36067">
        <ele>13.6</ele>
        <time>2013-07-23T10:25:19Z</time>
      </trkpt>
      <trkpt lat="44.65681" lon="-0.36111">
        <ele>13.6</ele>
        <time>2013-07-23T10:25:30Z</time>
      </trkpt>
      <trkpt lat="44.65686" lon="-0.3612">
        <ele>13.12</ele>
        <time>2013-07-23T10:25:32Z</time>
      </trkpt>
      <trkpt lat="44.65735" lon="-0.36179">
        <ele>13.6</ele>
        <time>2013-07-23T10:25:48Z</time>
      </trkpt>
      <trkpt lat="44.65741" lon="-0.36186">
        <ele>13.6</ele>
        <time>2013-07-23T10:25:50Z</time>
      </trkpt>
      <trkpt lat="44.65751" lon="-0.36198">
        <ele>14.08</ele>
        <time>2013-07-23T10:25:53Z</time>
      </trkpt>
      <trkpt lat="44.65761" lon="-0.36209">
        <ele>13.6</ele>
        <time>2013-07-23T10:25:56Z</time>
      </trkpt>
      <trkpt lat="44.65782" lon="-0.3623">
        <ele>14.08</ele>
        <time>2013-07-23T10:26:02Z</time>
      </trkpt>
      <trkpt lat="44.65793" lon="-0.3624">
        <ele>14.08</ele>
        <time>2013-07-23T10:26:05Z</time>
      </trkpt>
      <trkpt lat="44.65834" lon="-0.36282">
        <ele>14.56</ele>
        <time>2013-07-23T10:26:17Z</time>
      </trkpt>
      <trkpt lat="44.6584" lon="-0.36289">
        <ele>14.56</ele>
        <time>2013-07-23T10:26:19Z</time>
      </trkpt>
      <trkpt lat="44.65854" lon="-0.36302">
        <ele>14.56</ele>
        <time>2013-07-23T10:26:23Z</time>
      </trkpt>
      <trkpt lat="44.65908" lon="-0.36369">
        <ele>15.52</ele>
        <time>2013-07-23T10:26:41Z</time>
      </trkpt>
      <trkpt lat="44.65918" lon="-0.36381">
        <ele>15.52</ele>
        <time>2013-07-23T10:26:44Z</time>
      </trkpt>
      <trkpt lat="44.6593" lon="-0.36396">
        <ele>15.52</ele>
        <time>2013-07-23T10:26:48Z</time>
      </trkpt>
      <trkpt lat="44.65939" lon="-0.36409">
        <ele>15.52</ele>
        <time>2013-07-23T10:26:51Z</time>
      </trkpt>
      <trkpt lat="44.65988" lon="-0.36474">
        <ele>15.04</ele>
        <time>2013-07-23T10:27:07Z</time>
      </trkpt>
      <trkpt lat="44.66004" lon="-0.36495">
        <ele>15.04</ele>
        <time>2013-07-23T10:27:12Z</time>
      </trkpt>
      <trkpt lat="44.66051" lon="-0.36565">
        <ele>14.08</ele>
        <time>2013-07-23T10:27:27Z</time>
      </trkpt>
      <trkpt lat="44.66062" lon="-0.36583">
        <ele>14.08</ele>
        <time>2013-07-23T10:27:31Z</time>
      </trkpt>
      <trkpt lat="44.66104" lon="-0.36652">
        <ele>14.08</ele>
        <time>2013-07-23T10:27:46Z</time>
      </trkpt>
      <trkpt lat="44.66107" lon="-0.36657">
        <ele>14.08</ele>
        <time>2013-07-23T10:27:47Z</time>
      </trkpt>
      <trkpt lat="44.66117" lon="-0.36677">
        <ele>14.08</ele>
        <time>2013-07-23T10:27:51Z</time>
      </trkpt>
      <trkpt lat="44.66142" lon="-0.36763">
        <ele>13.12</ele>
        <time>2013-07-23T10:28:06Z</time>
      </trkpt>
      <trkpt lat="44.66166" lon="-0.36865">
        <ele>12.15</ele>
        <time>2013-07-23T10:28:23Z</time>
      </trkpt>
      <trkpt lat="44.66186" lon="-0.36965">
        <ele>10.23</ele>
        <time>2013-07-23T10:28:39Z</time>
      </trkpt>
      <trkpt lat="44.66205" lon="-0.36967">
        <ele>9.27</ele>
        <time>2013-07-23T10:28:45Z</time>
      </trkpt>
      <trkpt lat="44.66238" lon="-0.36964">
        <ele>7.35</ele>
        <time>2013-07-23T10:28:52Z</time>
      </trkpt>
      <trkpt lat="44.66261" lon="-0.36965">
        <ele>5.91</ele>
        <time>2013-07-23T10:28:57Z</time>
      </trkpt>
      <trkpt lat="44.66312" lon="-0.36953">
        <ele>4.46</ele>
        <time>2013-07-23T10:29:11Z</time>
      </trkpt>
      <trkpt lat="44.66325" lon="-0.36943">
        <ele>5.42</ele>
        <time>2013-07-23T10:29:21Z</time>
      </trkpt>
      <trkpt lat="44.66326" lon="-0.36944">
        <ele>7.35</ele>
        <time>2013-07-23T10:29:40Z</time>
      </trkpt>
      <trkpt lat="44.6634" lon="-0.36929">
        <ele>7.35</ele>
        <time>2013-07-23T10:29:50Z</time>
      </trkpt>
      <trkpt lat="44.6636" lon="-0.3691">
        <ele>8.31</ele>
        <time>2013-07-23T10:29:59Z</time>
      </trkpt>
      <trkpt lat="44.66367" lon="-0.36904">
        <ele>8.79</ele>
        <time>2013-07-23T10:30:09Z</time>
      </trkpt>
      <trkpt lat="44.6636" lon="-0.36912">
        <ele>8.79</ele>
        <time>2013-07-23T10:30:20Z</time>
      </trkpt>
      <trkpt lat="44.66337" lon="-0.36935">
        <ele>9.75</ele>
        <time>2013-07-23T10:30:30Z</time>
      </trkpt>
      <trkpt lat="44.6631" lon="-0.36954">
        <ele>9.27</ele>
        <time>2013-07-23T10:30:40Z</time>
      </trkpt>
      <trkpt lat="44.66305" lon="-0.36957">
        <ele>8.79</ele>
        <time>2013-07-23T10:30:42Z</time>
      </trkpt>
      <trkpt lat="44.66301" lon="-0.36959">
        <ele>8.79</ele>
        <time>2013-07-23T10:30:55Z</time>
      </trkpt>
      <trkpt lat="44.66289" lon="-0.36967">
        <ele>9.27</ele>
        <time>2013-07-23T10:31:01Z</time>
      </trkpt>
      <trkpt lat="44.66287" lon="-0.36977">
        <ele>8.79</ele>
        <time>2013-07-23T10:31:05Z</time>
      </trkpt>
      <trkpt lat="44.66304" lon="-0.37023">
        <ele>7.35</ele>
        <time>2013-07-23T10:31:18Z</time>
      </trkpt>
      <trkpt lat="44.66306" lon="-0.37025">
        <ele>7.35</ele>
        <time>2013-07-23T10:31:19Z</time>
      </trkpt>
      <trkpt lat="44.66326" lon="-0.37016">
        <ele>7.35</ele>
        <time>2013-07-23T10:31:28Z</time>
      </trkpt>
      <trkpt lat="44.66333" lon="-0.37009">
        <ele>7.35</ele>
        <time>2013-07-23T10:31:31Z</time>
      </trkpt>
      <trkpt lat="44.66349" lon="-0.37015">
        <ele>7.35</ele>
        <time>2013-07-23T10:31:37Z</time>
      </trkpt>
      <trkpt lat="44.66384" lon="-0.37077">
        <ele>7.35</ele>
        <time>2013-07-23T10:31:55Z</time>
      </trkpt>
      <trkpt lat="44.6642" lon="-0.37141">
        <ele>6.39</ele>
        <time>2013-07-23T10:32:13Z</time>
      </trkpt>
      <trkpt lat="44.66431" lon="-0.37163">
        <ele>6.39</ele>
        <time>2013-07-23T10:32:25Z</time>
      </trkpt>
      <trkpt lat="44.66431" lon="-0.37163">
        <ele>6.39</ele>
        <time>2013-07-23T10:32:35Z</time>
      </trkpt>
      <trkpt lat="44.66427" lon="-0.37158">
        <ele>6.39</ele>
        <time>2013-07-23T10:32:38Z</time>
      </trkpt>
      <trkpt lat="44.66423" lon="-0.3715">
        <ele>5.91</ele>
        <time>2013-07-23T10:32:42Z</time>
      </trkpt>
      <trkpt lat="44.66404" lon="-0.37116">
        <ele>6.39</ele>
        <time>2013-07-23T10:32:53Z</time>
      </trkpt>
      <trkpt lat="44.66371" lon="-0.37056">
        <ele>6.39</ele>
        <time>2013-07-23T10:33:10Z</time>
      </trkpt>
      <trkpt lat="44.66344" lon="-0.3701">
        <ele>5.91</ele>
        <time>2013-07-23T10:33:24Z</time>
      </trkpt>
      <trkpt lat="44.66343" lon="-0.37007">
        <ele>6.39</ele>
        <time>2013-07-23T10:33:25Z</time>
      </trkpt>
      <trkpt lat="44.66356" lon="-0.36987">
        <ele>6.39</ele>
        <time>2013-07-23T10:33:34Z</time>
      </trkpt>
      <trkpt lat="44.66359" lon="-0.36985">
        <ele>6.39</ele>
        <time>2013-07-23T10:33:35Z</time>
      </trkpt>
      <trkpt lat="44.66387" lon="-0.36963">
        <ele>6.87</ele>
        <time>2013-07-23T10:33:46Z</time>
      </trkpt>
      <trkpt lat="44.66383" lon="-0.36947">
        <ele>6.87</ele>
        <time>2013-07-23T10:33:51Z</time>
      </trkpt>
      <trkpt lat="44.66363" lon="-0.36908">
        <ele>6.87</ele>
        <time>2013-07-23T10:34:02Z</time>
      </trkpt>
      <trkpt lat="44.66367" lon="-0.36896">
        <ele>7.35</ele>
        <time>2013-07-23T10:34:07Z</time>
      </trkpt>
      <trkpt lat="44.66405" lon="-0.36854">
        <ele>8.31</ele>
        <time>2013-07-23T10:34:22Z</time>
      </trkpt>
      <trkpt lat="44.66445" lon="-0.36827">
        <ele>8.31</ele>
        <time>2013-07-23T10:34:35Z</time>
      </trkpt>
      <trkpt lat="44.66494" lon="-0.36793">
        <ele>7.35</ele>
        <time>2013-07-23T10:34:51Z</time>
      </trkpt>
      <trkpt lat="44.66541" lon="-0.3676">
        <ele>7.83</ele>
        <time>2013-07-23T10:35:06Z</time>
      </trkpt>
      <trkpt lat="44.66553" lon="-0.36754">
        <ele>7.35</ele>
        <time>2013-07-23T10:35:10Z</time>
      </trkpt>
      <trkpt lat="44.66562" lon="-0.36763">
        <ele>7.83</ele>
        <time>2013-07-23T10:35:14Z</time>
      </trkpt>
      <trkpt lat="44.66582" lon="-0.36835">
        <ele>8.79</ele>
        <time>2013-07-23T10:35:31Z</time>
      </trkpt>
      <trkpt lat="44.66601" lon="-0.36896">
        <ele>8.79</ele>
        <time>2013-07-23T10:35:45Z</time>
      </trkpt>
      <trkpt lat="44.66607" lon="-0.36912">
        <ele>8.31</ele>
        <time>2013-07-23T10:35:52Z</time>
      </trkpt>
      <trkpt lat="44.66601" lon="-0.36929">
        <ele>8.31</ele>
        <time>2013-07-23T10:35:59Z</time>
      </trkpt>
      <trkpt lat="44.6658" lon="-0.36947">
        <ele>7.83</ele>
        <time>2013-07-23T10:36:07Z</time>
      </trkpt>
      <trkpt lat="44.66595" lon="-0.36978">
        <ele>8.31</ele>
        <time>2013-07-23T10:36:16Z</time>
      </trkpt>
      <trkpt lat="44.6664" lon="-0.37036">
        <ele>7.35</ele>
        <time>2013-07-23T10:36:33Z</time>
      </trkpt>
      <trkpt lat="44.66671" lon="-0.37084">
        <ele>7.83</ele>
        <time>2013-07-23T10:36:47Z</time>
      </trkpt>
      <trkpt lat="44.66708" lon="-0.37146">
        <ele>8.31</ele>
        <time>2013-07-23T10:37:03Z</time>
      </trkpt>
      <trkpt lat="44.66751" lon="-0.37223">
        <ele>7.83</ele>
        <time>2013-07-23T10:37:22Z</time>
      </trkpt>
      <trkpt lat="44.66768" lon="-0.37255">
        <ele>7.35</ele>
        <time>2013-07-23T10:37:30Z</time>
      </trkpt>
      <trkpt lat="44.66744" lon="-0.37304">
        <ele>6.87</ele>
        <time>2013-07-23T10:37:42Z</time>
      </trkpt>
      <trkpt lat="44.66727" lon="-0.37331">
        <ele>7.35</ele>
        <time>2013-07-23T10:37:48Z</time>
      </trkpt>
      <trkpt lat="44.66722" lon="-0.37341">
        <ele>7.35</ele>
        <time>2013-07-23T10:37:50Z</time>
      </trkpt>
      <trkpt lat="44.66709" lon="-0.37364">
        <ele>6.39</ele>
        <time>2013-07-23T10:37:55Z</time>
      </trkpt>
      <trkpt lat="44.66666" lon="-0.37437">
        <ele>5.42</ele>
        <time>2013-07-23T10:38:10Z</time>
      </trkpt>
      <trkpt lat="44.6665" lon="-0.37464">
        <ele>4.94</ele>
        <time>2013-07-23T10:38:16Z</time>
      </trkpt>
      <trkpt lat="44.66612" lon="-0.37527">
        <ele>6.87</ele>
        <time>2013-07-23T10:38:30Z</time>
      </trkpt>
      <trkpt lat="44.66609" lon="-0.37532">
        <ele>6.87</ele>
        <time>2013-07-23T10:38:31Z</time>
      </trkpt>
      <trkpt lat="44.66599" lon="-0.37551">
        <ele>6.87</ele>
        <time>2013-07-23T10:38:35Z</time>
      </trkpt>
      <trkpt lat="44.66588" lon="-0.37568">
        <ele>7.35</ele>
        <time>2013-07-23T10:38:39Z</time>
      </trkpt>
      <trkpt lat="44.66555" lon="-0.37604">
        <ele>6.87</ele>
        <time>2013-07-23T10:38:48Z</time>
      </trkpt>
      <trkpt lat="44.6654" lon="-0.37623">
        <ele>7.35</ele>
        <time>2013-07-23T10:38:52Z</time>
      </trkpt>
      <trkpt lat="44.66494" lon="-0.37679">
        <ele>9.27</ele>
        <time>2013-07-23T10:39:07Z</time>
      </trkpt>
      <trkpt lat="44.66458" lon="-0.37725">
        <ele>12.15</ele>
        <time>2013-07-23T10:39:19Z</time>
      </trkpt>
      <trkpt lat="44.6641" lon="-0.37792">
        <ele>12.15</ele>
        <time>2013-07-23T10:39:35Z</time>
      </trkpt>
      <trkpt lat="44.66364" lon="-0.37853">
        <ele>13.12</ele>
        <time>2013-07-23T10:39:49Z</time>
      </trkpt>
      <trkpt lat="44.66355" lon="-0.37866">
        <ele>13.12</ele>
        <time>2013-07-23T10:39:52Z</time>
      </trkpt>
      <trkpt lat="44.66339" lon="-0.37885">
        <ele>13.12</ele>
        <time>2013-07-23T10:39:57Z</time>
      </trkpt>
      <trkpt lat="44.66342" lon="-0.37899">
        <ele>12.63</ele>
        <time>2013-07-23T10:40:01Z</time>
      </trkpt>
      <trkpt lat="44.66392" lon="-0.37943">
        <ele>13.12</ele>
        <time>2013-07-23T10:40:16Z</time>
      </trkpt>
      <trkpt lat="44.66404" lon="-0.37952">
        <ele>13.12</ele>
        <time>2013-07-23T10:40:19Z</time>
      </trkpt>
      <trkpt lat="44.66421" lon="-0.37961">
        <ele>13.6</ele>
        <time>2013-07-23T10:40:23Z</time>
      </trkpt>
      <trkpt lat="44.66442" lon="-0.37969">
        <ele>14.08</ele>
        <time>2013-07-23T10:40:28Z</time>
      </trkpt>
      <trkpt lat="44.66451" lon="-0.37973">
        <ele>14.56</ele>
        <time>2013-07-23T10:40:30Z</time>
      </trkpt>
      <trkpt lat="44.66467" lon="-0.3798">
        <ele>15.04</ele>
        <time>2013-07-23T10:40:34Z</time>
      </trkpt>
      <trkpt lat="44.66535" lon="-0.38001">
        <ele>15.04</ele>
        <time>2013-07-23T10:40:48Z</time>
      </trkpt>
      <trkpt lat="44.66545" lon="-0.38004">
        <ele>14.56</ele>
        <time>2013-07-23T10:40:50Z</time>
      </trkpt>
      <trkpt lat="44.66579" lon="-0.38021">
        <ele>16.48</ele>
        <time>2013-07-23T10:40:57Z</time>
      </trkpt>
      <trkpt lat="44.66595" lon="-0.38038">
        <ele>16</ele>
        <time>2013-07-23T10:41:01Z</time>
      </trkpt>
      <trkpt lat="44.66619" lon="-0.38066">
        <ele>16.48</ele>
        <time>2013-07-23T10:41:07Z</time>
      </trkpt>
      <trkpt lat="44.66663" lon="-0.38099">
        <ele>14.56</ele>
        <time>2013-07-23T10:41:19Z</time>
      </trkpt>
      <trkpt lat="44.66669" lon="-0.38105">
        <ele>14.08</ele>
        <time>2013-07-23T10:41:21Z</time>
      </trkpt>
      <trkpt lat="44.66682" lon="-0.38124">
        <ele>13.6</ele>
        <time>2013-07-23T10:41:25Z</time>
      </trkpt>
      <trkpt lat="44.66723" lon="-0.38207">
        <ele>14.08</ele>
        <time>2013-07-23T10:41:40Z</time>
      </trkpt>
      <trkpt lat="44.66732" lon="-0.38221">
        <ele>14.08</ele>
        <time>2013-07-23T10:41:43Z</time>
      </trkpt>
      <trkpt lat="44.66759" lon="-0.38264">
        <ele>14.56</ele>
        <time>2013-07-23T10:41:53Z</time>
      </trkpt>
      <trkpt lat="44.66767" lon="-0.38269">
        <ele>15.04</ele>
        <time>2013-07-23T10:42:03Z</time>
      </trkpt>
      <trkpt lat="44.66767" lon="-0.3827">
        <ele>15.52</ele>
        <time>2013-07-23T10:42:28Z</time>
      </trkpt>
    </trkseg>
  </trk>
</gpx>